sensor_id;sensor_type;location;lat;lon;timestamp;P1;durP1;ratioP1;P2;durP2;ratioP2
20657;SDS011;10488;50.846;4.078;2022-09-23T00:00:58;9.90;;;6.88;;
20657;SDS011;10488;50.846;4.078;2022-09-23T00:03:26;11.13;;;7.82;;
20657;SDS011;10488;50.846;4.078;2022-09-23T00:05:57;15.80;;;7.82;;
20657;SDS011;10488;50.846;4.078;2022-09-23T00:08:24;11.68;;;7.57;;
20657;SDS011;10488;50.846;4.078;2022-09-23T00:10:51;10.70;;;7.22;;
20657;SDS011;10488;50.846;4.078;2022-09-23T00:13:18;10.90;;;7.57;;
20657;SDS011;10488;50.846;4.078;2022-09-23T00:15:45;11.98;;;8.50;;
20657;SDS011;10488;50.846;4.078;2022-09-23T00:18:11;9.18;;;7.53;;
20657;SDS011;10488;50.846;4.078;2022-09-23T00:20:39;11.35;;;8.25;;
20657;SDS011;10488;50.846;4.078;2022-09-23T00:23:06;13.65;;;8.38;;
20657;SDS011;10488;50.846;4.078;2022-09-23T00:25:31;10.85;;;8.25;;
20657;SDS011;10488;50.846;4.078;2022-09-23T00:27:58;13.80;;;9.55;;
20657;SDS011;10488;50.846;4.078;2022-09-23T00:30:24;10.50;;;7.78;;
20657;SDS011;10488;50.846;4.078;2022-09-23T00:32:50;13.20;;;8.43;;
20657;SDS011;10488;50.846;4.078;2022-09-23T00:35:18;16.65;;;9.40;;
20657;SDS011;10488;50.846;4.078;2022-09-23T00:37:44;13.15;;;9.57;;
20657;SDS011;10488;50.846;4.078;2022-09-23T00:40:10;10.88;;;9.20;;
20657;SDS011;10488;50.846;4.078;2022-09-23T00:42:48;14.02;;;8.60;;
20657;SDS011;10488;50.846;4.078;2022-09-23T00:45:16;17.20;;;9.45;;
20657;SDS011;10488;50.846;4.078;2022-09-23T00:50:17;16.02;;;9.70;;
20657;SDS011;10488;50.846;4.078;2022-09-23T00:53:02;11.00;;;9.07;;
20657;SDS011;10488;50.846;4.078;2022-09-23T00:55:36;11.25;;;8.80;;
20657;SDS011;10488;50.846;4.078;2022-09-23T00:58:03;15.30;;;9.20;;
20657;SDS011;10488;50.846;4.078;2022-09-23T01:00:35;12.50;;;8.35;;
20657;SDS011;10488;50.846;4.078;2022-09-23T01:03:02;10.95;;;8.68;;
20657;SDS011;10488;50.846;4.078;2022-09-23T01:05:31;12.98;;;8.90;;
20657;SDS011;10488;50.846;4.078;2022-09-23T01:07:57;12.43;;;9.20;;
20657;SDS011;10488;50.846;4.078;2022-09-23T01:10:26;13.57;;;9.23;;
20657;SDS011;10488;50.846;4.078;2022-09-23T01:15:42;14.73;;;9.52;;
20657;SDS011;10488;50.846;4.078;2022-09-23T01:34:44;14.63;;;8.90;;
20657;SDS011;10488;50.846;4.078;2022-09-23T01:37:13;12.95;;;8.98;;
20657;SDS011;10488;50.846;4.078;2022-09-23T01:40:02;13.77;;;9.30;;
20657;SDS011;10488;50.846;4.078;2022-09-23T01:42:40;13.68;;;9.07;;
20657;SDS011;10488;50.846;4.078;2022-09-23T01:48:00;10.90;;;9.52;;
20657;SDS011;10488;50.846;4.078;2022-09-23T01:50:34;12.95;;;9.98;;
20657;SDS011;10488;50.846;4.078;2022-09-23T01:53:36;14.02;;;9.48;;
20657;SDS011;10488;50.846;4.078;2022-09-23T01:56:20;10.35;;;8.88;;
20657;SDS011;10488;50.846;4.078;2022-09-23T01:58:56;14.38;;;9.23;;
20657;SDS011;10488;50.846;4.078;2022-09-23T02:01:36;12.73;;;8.43;;
20657;SDS011;10488;50.846;4.078;2022-09-23T02:04:08;10.90;;;8.30;;
20657;SDS011;10488;50.846;4.078;2022-09-23T02:06:49;13.95;;;8.60;;
20657;SDS011;10488;50.846;4.078;2022-09-23T02:09:24;10.57;;;8.00;;
20657;SDS011;10488;50.846;4.078;2022-09-23T02:11:59;12.13;;;8.63;;
20657;SDS011;10488;50.846;4.078;2022-09-23T02:17:48;15.05;;;8.20;;
20657;SDS011;10488;50.846;4.078;2022-09-23T02:20:27;10.80;;;8.32;;
20657;SDS011;10488;50.846;4.078;2022-09-23T02:23:12;14.38;;;7.97;;
20657;SDS011;10488;50.846;4.078;2022-09-23T02:25:50;12.57;;;7.68;;
20657;SDS011;10488;50.846;4.078;2022-09-23T02:28:46;11.77;;;7.93;;
20657;SDS011;10488;50.846;4.078;2022-09-23T02:31:39;12.07;;;7.82;;
20657;SDS011;10488;50.846;4.078;2022-09-23T02:45:24;15.60;;;8.60;;
20657;SDS011;10488;50.846;4.078;2022-09-23T02:47:52;12.68;;;8.15;;
20657;SDS011;10488;50.846;4.078;2022-09-23T02:50:23;14.85;;;8.75;;
20657;SDS011;10488;50.846;4.078;2022-09-23T02:52:50;12.45;;;9.18;;
20657;SDS011;10488;50.846;4.078;2022-09-23T02:55:16;12.63;;;7.93;;
20657;SDS011;10488;50.846;4.078;2022-09-23T02:57:46;14.57;;;7.72;;
20657;SDS011;10488;50.846;4.078;2022-09-23T03:00:14;14.15;;;8.65;;
20657;SDS011;10488;50.846;4.078;2022-09-23T03:03:00;13.45;;;8.40;;
20657;SDS011;10488;50.846;4.078;2022-09-23T03:05:55;10.02;;;7.63;;
20657;SDS011;10488;50.846;4.078;2022-09-23T03:11:13;11.98;;;8.25;;
20657;SDS011;10488;50.846;4.078;2022-09-23T03:19:20;13.18;;;9.27;;
20657;SDS011;10488;50.846;4.078;2022-09-23T03:22:30;16.15;;;10.00;;
20657;SDS011;10488;50.846;4.078;2022-09-23T03:24:42;16.08;;;8.95;;
20657;SDS011;10488;50.846;4.078;2022-09-23T03:27:12;15.10;;;8.82;;
20657;SDS011;10488;50.846;4.078;2022-09-23T03:29:47;11.80;;;8.65;;
20657;SDS011;10488;50.846;4.078;2022-09-23T03:32:15;13.07;;;8.75;;
20657;SDS011;10488;50.846;4.078;2022-09-23T03:34:47;13.88;;;8.65;;
20657;SDS011;10488;50.846;4.078;2022-09-23T03:37:34;13.00;;;7.82;;
20657;SDS011;10488;50.846;4.078;2022-09-23T03:42:33;10.77;;;7.95;;
20657;SDS011;10488;50.846;4.078;2022-09-23T03:45:03;12.98;;;7.82;;
20657;SDS011;10488;50.846;4.078;2022-09-23T03:47:35;11.82;;;7.68;;
20657;SDS011;10488;50.846;4.078;2022-09-23T03:50:03;11.75;;;7.65;;
20657;SDS011;10488;50.846;4.078;2022-09-23T03:52:31;9.60;;;7.38;;
20657;SDS011;10488;50.846;4.078;2022-09-23T03:54:57;11.52;;;8.07;;
20657;SDS011;10488;50.846;4.078;2022-09-23T03:57:23;11.70;;;7.40;;
20657;SDS011;10488;50.846;4.078;2022-09-23T03:59:49;12.00;;;8.40;;
20657;SDS011;10488;50.846;4.078;2022-09-23T04:02:18;9.68;;;8.43;;
20657;SDS011;10488;50.846;4.078;2022-09-23T04:04:45;11.90;;;8.50;;
20657;SDS011;10488;50.846;4.078;2022-09-23T04:07:11;12.68;;;8.60;;
20657;SDS011;10488;50.846;4.078;2022-09-23T04:09:38;14.25;;;9.10;;
20657;SDS011;10488;50.846;4.078;2022-09-23T04:12:04;10.35;;;8.80;;
20657;SDS011;10488;50.846;4.078;2022-09-23T04:14:30;14.18;;;9.32;;
20657;SDS011;10488;50.846;4.078;2022-09-23T04:16:57;13.15;;;8.68;;
20657;SDS011;10488;50.846;4.078;2022-09-23T04:19:25;16.08;;;8.57;;
20657;SDS011;10488;50.846;4.078;2022-09-23T04:21:52;14.88;;;8.88;;
20657;SDS011;10488;50.846;4.078;2022-09-23T04:24:18;10.27;;;8.73;;
20657;SDS011;10488;50.846;4.078;2022-09-23T04:26:44;15.57;;;8.02;;
20657;SDS011;10488;50.846;4.078;2022-09-23T04:29:10;10.20;;;7.63;;
20657;SDS011;10488;50.846;4.078;2022-09-23T04:31:38;14.68;;;7.45;;
20657;SDS011;10488;50.846;4.078;2022-09-23T04:34:05;8.27;;;6.97;;
20657;SDS011;10488;50.846;4.078;2022-09-23T04:36:32;12.32;;;7.47;;
20657;SDS011;10488;50.846;4.078;2022-09-23T04:38:59;10.38;;;7.35;;
20657;SDS011;10488;50.846;4.078;2022-09-23T04:41:24;13.80;;;7.43;;
20657;SDS011;10488;50.846;4.078;2022-09-23T04:43:51;11.55;;;7.85;;
20657;SDS011;10488;50.846;4.078;2022-09-23T04:46:17;10.40;;;7.43;;
20657;SDS011;10488;50.846;4.078;2022-09-23T04:48:43;9.82;;;7.20;;
20657;SDS011;10488;50.846;4.078;2022-09-23T04:51:11;8.20;;;7.32;;
20657;SDS011;10488;50.846;4.078;2022-09-23T04:53:43;9.43;;;7.63;;
20657;SDS011;10488;50.846;4.078;2022-09-23T04:56:21;12.18;;;8.55;;
20657;SDS011;10488;50.846;4.078;2022-09-23T04:58:54;11.15;;;8.63;;
20657;SDS011;10488;50.846;4.078;2022-09-23T05:01:24;11.70;;;8.48;;
20657;SDS011;10488;50.846;4.078;2022-09-23T05:03:55;10.38;;;7.93;;
20657;SDS011;10488;50.846;4.078;2022-09-23T05:06:23;11.27;;;8.23;;
20657;SDS011;10488;50.846;4.078;2022-09-23T05:08:51;11.50;;;8.75;;
20657;SDS011;10488;50.846;4.078;2022-09-23T05:11:20;10.80;;;8.13;;
20657;SDS011;10488;50.846;4.078;2022-09-23T05:13:47;11.30;;;8.43;;
20657;SDS011;10488;50.846;4.078;2022-09-23T05:16:15;13.73;;;9.25;;
20657;SDS011;10488;50.846;4.078;2022-09-23T05:18:42;13.07;;;8.93;;
20657;SDS011;10488;50.846;4.078;2022-09-23T05:21:10;12.30;;;8.18;;
20657;SDS011;10488;50.846;4.078;2022-09-23T05:23:45;11.80;;;7.90;;
20657;SDS011;10488;50.846;4.078;2022-09-23T05:26:13;13.80;;;7.28;;
20657;SDS011;10488;50.846;4.078;2022-09-23T05:28:40;8.23;;;7.03;;
20657;SDS011;10488;50.846;4.078;2022-09-23T05:33:39;8.52;;;6.57;;
20657;SDS011;10488;50.846;4.078;2022-09-23T05:36:06;12.38;;;6.95;;
20657;SDS011;10488;50.846;4.078;2022-09-23T05:38:33;12.50;;;7.47;;
20657;SDS011;10488;50.846;4.078;2022-09-23T05:41:01;15.18;;;7.40;;
20657;SDS011;10488;50.846;4.078;2022-09-23T05:43:29;9.48;;;6.78;;
20657;SDS011;10488;50.846;4.078;2022-09-23T05:46:06;15.57;;;6.75;;
20657;SDS011;10488;50.846;4.078;2022-09-23T05:48:37;9.40;;;6.65;;
20657;SDS011;10488;50.846;4.078;2022-09-23T05:51:05;8.90;;;5.80;;
20657;SDS011;10488;50.846;4.078;2022-09-23T05:53:34;10.98;;;6.78;;
20657;SDS011;10488;50.846;4.078;2022-09-23T05:56:02;8.98;;;6.85;;
20657;SDS011;10488;50.846;4.078;2022-09-23T05:58:27;11.43;;;6.72;;
20657;SDS011;10488;50.846;4.078;2022-09-23T06:00:54;10.75;;;6.32;;
20657;SDS011;10488;50.846;4.078;2022-09-23T06:03:25;9.25;;;5.75;;
20657;SDS011;10488;50.846;4.078;2022-09-23T06:05:52;15.52;;;6.15;;
20657;SDS011;10488;50.846;4.078;2022-09-23T06:08:19;12.15;;;6.03;;
20657;SDS011;10488;50.846;4.078;2022-09-23T06:10:48;6.93;;;5.57;;
20657;SDS011;10488;50.846;4.078;2022-09-23T06:13:15;9.00;;;5.65;;
20657;SDS011;10488;50.846;4.078;2022-09-23T06:15:42;12.10;;;5.28;;
20657;SDS011;10488;50.846;4.078;2022-09-23T06:18:10;9.13;;;5.57;;
20657;SDS011;10488;50.846;4.078;2022-09-23T06:20:37;10.98;;;5.45;;
20657;SDS011;10488;50.846;4.078;2022-09-23T06:23:09;9.15;;;5.18;;
20657;SDS011;10488;50.846;4.078;2022-09-23T06:25:35;9.95;;;5.22;;
20657;SDS011;10488;50.846;4.078;2022-09-23T06:28:06;15.43;;;4.95;;
20657;SDS011;10488;50.846;4.078;2022-09-23T06:30:37;7.55;;;5.05;;
20657;SDS011;10488;50.846;4.078;2022-09-23T06:33:06;7.78;;;4.70;;
20657;SDS011;10488;50.846;4.078;2022-09-23T06:35:32;11.15;;;5.10;;
20657;SDS011;10488;50.846;4.078;2022-09-23T06:38:01;8.23;;;4.80;;
20657;SDS011;10488;50.846;4.078;2022-09-23T06:40:29;9.70;;;4.88;;
20657;SDS011;10488;50.846;4.078;2022-09-23T06:42:59;9.15;;;4.38;;
20657;SDS011;10488;50.846;4.078;2022-09-23T06:45:26;7.53;;;4.65;;
20657;SDS011;10488;50.846;4.078;2022-09-23T06:47:53;12.48;;;4.25;;
20657;SDS011;10488;50.846;4.078;2022-09-23T06:50:23;9.18;;;4.40;;
20657;SDS011;10488;50.846;4.078;2022-09-23T06:52:53;9.23;;;4.40;;
20657;SDS011;10488;50.846;4.078;2022-09-23T06:55:22;9.57;;;5.05;;
20657;SDS011;10488;50.846;4.078;2022-09-23T06:57:48;11.60;;;5.40;;
20657;SDS011;10488;50.846;4.078;2022-09-23T07:00:14;7.93;;;4.30;;
20657;SDS011;10488;50.846;4.078;2022-09-23T07:02:40;11.85;;;4.93;;
20657;SDS011;10488;50.846;4.078;2022-09-23T07:05:08;10.73;;;4.80;;
20657;SDS011;10488;50.846;4.078;2022-09-23T07:07:34;9.50;;;4.60;;
20657;SDS011;10488;50.846;4.078;2022-09-23T07:10:04;8.57;;;5.32;;
20657;SDS011;10488;50.846;4.078;2022-09-23T07:12:33;8.30;;;4.38;;
20657;SDS011;10488;50.846;4.078;2022-09-23T07:14:59;11.57;;;3.97;;
20657;SDS011;10488;50.846;4.078;2022-09-23T07:17:24;11.13;;;4.25;;
20657;SDS011;10488;50.846;4.078;2022-09-23T07:19:51;12.52;;;4.55;;
20657;SDS011;10488;50.846;4.078;2022-09-23T07:22:19;9.85;;;3.83;;
20657;SDS011;10488;50.846;4.078;2022-09-23T07:24:46;8.82;;;4.82;;
20657;SDS011;10488;50.846;4.078;2022-09-23T07:27:12;9.70;;;4.90;;
20657;SDS011;10488;50.846;4.078;2022-09-23T07:29:43;5.47;;;4.32;;
20657;SDS011;10488;50.846;4.078;2022-09-23T07:32:08;11.57;;;4.30;;
20657;SDS011;10488;50.846;4.078;2022-09-23T07:34:34;12.20;;;4.03;;
20657;SDS011;10488;50.846;4.078;2022-09-23T07:37:00;8.98;;;4.50;;
20657;SDS011;10488;50.846;4.078;2022-09-23T07:39:26;7.70;;;4.43;;
20657;SDS011;10488;50.846;4.078;2022-09-23T07:41:52;9.27;;;4.05;;
20657;SDS011;10488;50.846;4.078;2022-09-23T07:44:18;15.73;;;4.63;;
20657;SDS011;10488;50.846;4.078;2022-09-23T07:46:46;9.40;;;4.28;;
20657;SDS011;10488;50.846;4.078;2022-09-23T07:49:12;6.43;;;3.88;;
20657;SDS011;10488;50.846;4.078;2022-09-23T07:51:39;8.82;;;3.78;;
20657;SDS011;10488;50.846;4.078;2022-09-23T07:54:07;7.75;;;4.45;;
20657;SDS011;10488;50.846;4.078;2022-09-23T07:56:35;6.30;;;4.03;;
20657;SDS011;10488;50.846;4.078;2022-09-23T07:59:02;10.63;;;4.45;;
20657;SDS011;10488;50.846;4.078;2022-09-23T08:03:59;9.40;;;4.15;;
20657;SDS011;10488;50.846;4.078;2022-09-23T08:06:31;7.47;;;3.50;;
20657;SDS011;10488;50.846;4.078;2022-09-23T08:08:57;7.32;;;3.80;;
20657;SDS011;10488;50.846;4.078;2022-09-23T08:11:24;8.23;;;4.00;;
20657;SDS011;10488;50.846;4.078;2022-09-23T08:13:51;5.40;;;3.70;;
20657;SDS011;10488;50.846;4.078;2022-09-23T08:16:17;11.70;;;4.07;;
20657;SDS011;10488;50.846;4.078;2022-09-23T08:18:43;7.30;;;4.03;;
20657;SDS011;10488;50.846;4.078;2022-09-23T08:21:09;8.18;;;4.25;;
20657;SDS011;10488;50.846;4.078;2022-09-23T08:23:35;6.22;;;3.78;;
20657;SDS011;10488;50.846;4.078;2022-09-23T08:26:02;7.70;;;4.15;;
20657;SDS011;10488;50.846;4.078;2022-09-23T08:28:29;7.63;;;4.22;;
20657;SDS011;10488;50.846;4.078;2022-09-23T08:30:58;5.20;;;4.35;;
20657;SDS011;10488;50.846;4.078;2022-09-23T08:33:24;11.35;;;4.75;;
20657;SDS011;10488;50.846;4.078;2022-09-23T08:35:51;9.63;;;4.03;;
20657;SDS011;10488;50.846;4.078;2022-09-23T08:38:22;8.55;;;3.67;;
20657;SDS011;10488;50.846;4.078;2022-09-23T08:40:48;5.03;;;4.10;;
20657;SDS011;10488;50.846;4.078;2022-09-23T08:43:30;10.90;;;3.80;;
20657;SDS011;10488;50.846;4.078;2022-09-23T08:46:05;8.77;;;3.92;;
20657;SDS011;10488;50.846;4.078;2022-09-23T08:48:41;11.38;;;4.25;;
20657;SDS011;10488;50.846;4.078;2022-09-23T08:51:12;4.45;;;3.83;;
20657;SDS011;10488;50.846;4.078;2022-09-23T08:53:40;5.40;;;4.00;;
20657;SDS011;10488;50.846;4.078;2022-09-23T08:56:14;7.72;;;3.63;;
20657;SDS011;10488;50.846;4.078;2022-09-23T09:06:54;7.90;;;4.32;;
20657;SDS011;10488;50.846;4.078;2022-09-23T09:09:43;8.60;;;4.30;;
20657;SDS011;10488;50.846;4.078;2022-09-23T09:12:17;8.57;;;3.97;;
20657;SDS011;10488;50.846;4.078;2022-09-23T09:22:54;9.60;;;4.78;;
20657;SDS011;10488;50.846;4.078;2022-09-23T09:28:14;6.70;;;4.22;;
20657;SDS011;10488;50.846;4.078;2022-09-23T09:31:00;9.02;;;3.90;;
20657;SDS011;10488;50.846;4.078;2022-09-23T09:33:30;9.75;;;4.47;;
20657;SDS011;10488;50.846;4.078;2022-09-23T09:36:28;8.63;;;4.78;;
20657;SDS011;10488;50.846;4.078;2022-09-23T09:39:04;10.70;;;4.85;;
20657;SDS011;10488;50.846;4.078;2022-09-23T09:41:33;8.73;;;4.72;;
20657;SDS011;10488;50.846;4.078;2022-09-23T09:43:59;8.38;;;4.00;;
20657;SDS011;10488;50.846;4.078;2022-09-23T09:46:35;10.85;;;4.70;;
20657;SDS011;10488;50.846;4.078;2022-09-23T09:49:25;5.53;;;4.18;;
20657;SDS011;10488;50.846;4.078;2022-09-23T09:54:54;5.45;;;4.18;;
20657;SDS011;10488;50.846;4.078;2022-09-23T10:00:15;6.32;;;4.68;;
20657;SDS011;10488;50.846;4.078;2022-09-23T10:02:57;7.35;;;4.03;;
20657;SDS011;10488;50.846;4.078;2022-09-23T10:05:31;7.05;;;4.20;;
20657;SDS011;10488;50.846;4.078;2022-09-23T10:08:20;8.10;;;4.30;;
20657;SDS011;10488;50.846;4.078;2022-09-23T10:13:58;8.20;;;4.70;;
20657;SDS011;10488;50.846;4.078;2022-09-23T10:16:29;10.43;;;4.53;;
20657;SDS011;10488;50.846;4.078;2022-09-23T10:18:57;9.13;;;4.57;;
20657;SDS011;10488;50.846;4.078;2022-09-23T10:21:25;7.25;;;3.95;;
20657;SDS011;10488;50.846;4.078;2022-09-23T10:23:59;7.28;;;3.58;;
20657;SDS011;10488;50.846;4.078;2022-09-23T10:26:29;11.98;;;4.45;;
20657;SDS011;10488;50.846;4.078;2022-09-23T10:34:55;5.50;;;4.30;;
20657;SDS011;10488;50.846;4.078;2022-09-23T10:40:19;9.48;;;4.57;;
20657;SDS011;10488;50.846;4.078;2022-09-23T10:46:13;6.35;;;4.07;;
20657;SDS011;10488;50.846;4.078;2022-09-23T10:54:41;6.15;;;3.95;;
20657;SDS011;10488;50.846;4.078;2022-09-23T10:57:34;7.15;;;4.43;;
20657;SDS011;10488;50.846;4.078;2022-09-23T11:00:34;7.43;;;4.32;;
20657;SDS011;10488;50.846;4.078;2022-09-23T11:08:47;9.90;;;4.47;;
20657;SDS011;10488;50.846;4.078;2022-09-23T11:19:29;6.80;;;4.72;;
20657;SDS011;10488;50.846;4.078;2022-09-23T11:25:18;6.88;;;4.70;;
20657;SDS011;10488;50.846;4.078;2022-09-23T11:30:35;7.55;;;4.03;;
20657;SDS011;10488;50.846;4.078;2022-09-23T11:35:51;6.43;;;4.60;;
20657;SDS011;10488;50.846;4.078;2022-09-23T11:38:24;6.43;;;4.38;;
20657;SDS011;10488;50.846;4.078;2022-09-23T11:40:59;6.75;;;4.88;;
20657;SDS011;10488;50.846;4.078;2022-09-23T11:43:31;7.25;;;5.45;;
20657;SDS011;10488;50.846;4.078;2022-09-23T11:54:26;10.50;;;4.13;;
20657;SDS011;10488;50.846;4.078;2022-09-23T11:57:05;5.97;;;4.10;;
20657;SDS011;10488;50.846;4.078;2022-09-23T11:59:51;8.77;;;4.68;;
20657;SDS011;10488;50.846;4.078;2022-09-23T12:02:27;6.85;;;4.13;;
20657;SDS011;10488;50.846;4.078;2022-09-23T12:05:17;7.03;;;3.95;;
20657;SDS011;10488;50.846;4.078;2022-09-23T12:07:50;8.52;;;4.13;;
20657;SDS011;10488;50.846;4.078;2022-09-23T12:10:25;5.88;;;3.85;;
20657;SDS011;10488;50.846;4.078;2022-09-23T12:13:22;9.43;;;4.57;;
20657;SDS011;10488;50.846;4.078;2022-09-23T12:18:55;13.02;;;4.80;;
20657;SDS011;10488;50.846;4.078;2022-09-23T12:21:50;6.35;;;4.10;;
20657;SDS011;10488;50.846;4.078;2022-09-23T12:27:23;7.40;;;4.00;;
20657;SDS011;10488;50.846;4.078;2022-09-23T12:30:04;12.02;;;4.70;;
20657;SDS011;10488;50.846;4.078;2022-09-23T12:32:38;9.98;;;5.30;;
20657;SDS011;10488;50.846;4.078;2022-09-23T12:35:05;16.30;;;5.53;;
20657;SDS011;10488;50.846;4.078;2022-09-23T12:37:45;13.38;;;4.65;;
20657;SDS011;10488;50.846;4.078;2022-09-23T12:40:27;10.13;;;4.78;;
20657;SDS011;10488;50.846;4.078;2022-09-23T12:43:14;9.13;;;4.32;;
20657;SDS011;10488;50.846;4.078;2022-09-23T12:46:16;6.72;;;4.88;;
20657;SDS011;10488;50.846;4.078;2022-09-23T12:51:21;14.55;;;4.60;;
20657;SDS011;10488;50.846;4.078;2022-09-23T12:53:52;9.60;;;5.15;;
20657;SDS011;10488;50.846;4.078;2022-09-23T12:56:21;6.80;;;4.28;;
20657;SDS011;10488;50.846;4.078;2022-09-23T13:01:53;12.68;;;4.40;;
20657;SDS011;10488;50.846;4.078;2022-09-23T13:04:27;10.05;;;4.50;;
20657;SDS011;10488;50.846;4.078;2022-09-23T13:07:17;8.40;;;4.93;;
20657;SDS011;10488;50.846;4.078;2022-09-23T13:09:49;8.43;;;5.03;;
20657;SDS011;10488;50.846;4.078;2022-09-23T13:12:21;9.60;;;4.93;;
20657;SDS011;10488;50.846;4.078;2022-09-23T13:14:53;12.35;;;4.82;;
20657;SDS011;10488;50.846;4.078;2022-09-23T13:17:24;9.07;;;5.00;;
20657;SDS011;10488;50.846;4.078;2022-09-23T13:20:00;10.15;;;4.40;;
20657;SDS011;10488;50.846;4.078;2022-09-23T13:22:38;11.00;;;4.80;;
20657;SDS011;10488;50.846;4.078;2022-09-23T13:25:20;6.80;;;4.55;;
20657;SDS011;10488;50.846;4.078;2022-09-23T13:27:55;10.73;;;5.30;;
20657;SDS011;10488;50.846;4.078;2022-09-23T13:30:25;14.40;;;5.15;;
20657;SDS011;10488;50.846;4.078;2022-09-23T13:33:05;11.38;;;5.25;;
20657;SDS011;10488;50.846;4.078;2022-09-23T13:35:42;9.35;;;4.82;;
20657;SDS011;10488;50.846;4.078;2022-09-23T13:38:22;10.48;;;5.20;;
20657;SDS011;10488;50.846;4.078;2022-09-23T13:40:53;10.15;;;5.18;;
20657;SDS011;10488;50.846;4.078;2022-09-23T13:43:39;7.88;;;5.30;;
20657;SDS011;10488;50.846;4.078;2022-09-23T13:46:26;6.63;;;4.85;;
20657;SDS011;10488;50.846;4.078;2022-09-23T13:48:55;11.85;;;5.10;;
20657;SDS011;10488;50.846;4.078;2022-09-23T13:51:33;13.02;;;5.00;;
20657;SDS011;10488;50.846;4.078;2022-09-23T13:54:01;13.85;;;5.15;;
20657;SDS011;10488;50.846;4.078;2022-09-23T13:56:30;9.13;;;4.45;;
20657;SDS011;10488;50.846;4.078;2022-09-23T13:59:14;12.15;;;5.38;;
20657;SDS011;10488;50.846;4.078;2022-09-23T14:01:47;12.13;;;5.47;;
20657;SDS011;10488;50.846;4.078;2022-09-23T14:04:23;9.68;;;5.25;;
20657;SDS011;10488;50.846;4.078;2022-09-23T14:06:51;12.27;;;6.38;;
20657;SDS011;10488;50.846;4.078;2022-09-23T14:09:17;10.07;;;4.90;;
20657;SDS011;10488;50.846;4.078;2022-09-23T14:11:48;6.65;;;5.00;;
20657;SDS011;10488;50.846;4.078;2022-09-23T14:14:15;20.38;;;11.80;;
20657;SDS011;10488;50.846;4.078;2022-09-23T14:16:41;9.93;;;5.82;;
20657;SDS011;10488;50.846;4.078;2022-09-23T14:19:30;11.57;;;5.72;;
20657;SDS011;10488;50.846;4.078;2022-09-23T14:21:55;15.95;;;5.18;;
20657;SDS011;10488;50.846;4.078;2022-09-23T14:29:33;10.07;;;5.53;;
20657;SDS011;10488;50.846;4.078;2022-09-23T14:32:09;12.88;;;4.75;;
20657;SDS011;10488;50.846;4.078;2022-09-23T14:34:38;8.27;;;4.95;;
20657;SDS011;10488;50.846;4.078;2022-09-23T14:45:44;11.85;;;4.63;;
20657;SDS011;10488;50.846;4.078;2022-09-23T14:48:15;8.40;;;5.20;;
20657;SDS011;10488;50.846;4.078;2022-09-23T14:50:50;6.63;;;4.43;;
20657;SDS011;10488;50.846;4.078;2022-09-23T14:56:37;9.30;;;4.20;;
20657;SDS011;10488;50.846;4.078;2022-09-23T15:01:25;8.68;;;4.57;;
20657;SDS011;10488;50.846;4.078;2022-09-23T15:03:58;7.70;;;4.75;;
20657;SDS011;10488;50.846;4.078;2022-09-23T15:06:35;7.82;;;4.63;;
20657;SDS011;10488;50.846;4.078;2022-09-23T15:09:03;10.60;;;5.43;;
20657;SDS011;10488;50.846;4.078;2022-09-23T15:11:30;15.57;;;7.20;;
20657;SDS011;10488;50.846;4.078;2022-09-23T15:13:57;14.05;;;7.00;;
20657;SDS011;10488;50.846;4.078;2022-09-23T15:16:26;10.70;;;6.15;;
20657;SDS011;10488;50.846;4.078;2022-09-23T15:18:53;12.93;;;5.78;;
20657;SDS011;10488;50.846;4.078;2022-09-23T15:21:21;11.27;;;5.40;;
20657;SDS011;10488;50.846;4.078;2022-09-23T15:23:50;7.60;;;5.72;;
20657;SDS011;10488;50.846;4.078;2022-09-23T15:26:22;15.57;;;6.90;;
20657;SDS011;10488;50.846;4.078;2022-09-23T15:29:08;15.00;;;5.70;;
20657;SDS011;10488;50.846;4.078;2022-09-23T15:31:34;10.30;;;6.30;;
20657;SDS011;10488;50.846;4.078;2022-09-23T15:34:01;9.05;;;6.38;;
20657;SDS011;10488;50.846;4.078;2022-09-23T15:36:27;13.60;;;6.80;;
20657;SDS011;10488;50.846;4.078;2022-09-23T15:38:53;10.63;;;6.72;;
20657;SDS011;10488;50.846;4.078;2022-09-23T15:41:23;13.13;;;7.65;;
20657;SDS011;10488;50.846;4.078;2022-09-23T15:43:50;13.02;;;8.13;;
20657;SDS011;10488;50.846;4.078;2022-09-23T15:46:23;9.82;;;6.80;;
20657;SDS011;10488;50.846;4.078;2022-09-23T15:51:26;10.95;;;6.65;;
20657;SDS011;10488;50.846;4.078;2022-09-23T15:53:54;12.77;;;7.88;;
20657;SDS011;10488;50.846;4.078;2022-09-23T15:56:21;11.90;;;6.80;;
20657;SDS011;10488;50.846;4.078;2022-09-23T15:58:49;14.38;;;7.78;;
20657;SDS011;10488;50.846;4.078;2022-09-23T16:01:25;13.60;;;7.05;;
20657;SDS011;10488;50.846;4.078;2022-09-23T16:03:54;13.27;;;7.43;;
20657;SDS011;10488;50.846;4.078;2022-09-23T16:06:22;9.35;;;7.10;;
20657;SDS011;10488;50.846;4.078;2022-09-23T16:08:53;10.43;;;6.07;;
20657;SDS011;10488;50.846;4.078;2022-09-23T16:11:20;9.73;;;7.18;;
20657;SDS011;10488;50.846;4.078;2022-09-23T16:13:48;15.55;;;8.95;;
20657;SDS011;10488;50.846;4.078;2022-09-23T16:16:16;14.48;;;9.75;;
20657;SDS011;10488;50.846;4.078;2022-09-23T16:18:46;12.15;;;7.90;;
20657;SDS011;10488;50.846;4.078;2022-09-23T16:21:12;10.40;;;8.15;;
20657;SDS011;10488;50.846;4.078;2022-09-23T16:23:41;9.13;;;7.20;;
20657;SDS011;10488;50.846;4.078;2022-09-23T16:28:55;18.83;;;10.48;;
20657;SDS011;10488;50.846;4.078;2022-09-23T16:31:22;14.68;;;8.98;;
20657;SDS011;10488;50.846;4.078;2022-09-23T16:33:55;15.30;;;9.63;;
20657;SDS011;10488;50.846;4.078;2022-09-23T16:38:55;13.32;;;9.85;;
20657;SDS011;10488;50.846;4.078;2022-09-23T16:41:26;11.55;;;8.73;;
20657;SDS011;10488;50.846;4.078;2022-09-23T16:43:58;18.85;;;11.35;;
20657;SDS011;10488;50.846;4.078;2022-09-23T16:46:24;11.95;;;9.18;;
20657;SDS011;10488;50.846;4.078;2022-09-23T16:48:51;11.57;;;8.77;;
20657;SDS011;10488;50.846;4.078;2022-09-23T16:51:28;11.50;;;9.00;;
20657;SDS011;10488;50.846;4.078;2022-09-23T16:53:57;13.65;;;8.60;;
20657;SDS011;10488;50.846;4.078;2022-09-23T16:56:24;14.48;;;9.23;;
20657;SDS011;10488;50.846;4.078;2022-09-23T16:58:52;15.20;;;9.25;;
20657;SDS011;10488;50.846;4.078;2022-09-23T17:01:23;11.80;;;9.05;;
20657;SDS011;10488;50.846;4.078;2022-09-23T17:04:09;15.45;;;9.85;;
20657;SDS011;10488;50.846;4.078;2022-09-23T17:06:57;15.63;;;9.93;;
20657;SDS011;10488;50.846;4.078;2022-09-23T17:09:25;12.82;;;9.95;;
20657;SDS011;10488;50.846;4.078;2022-09-23T17:14:24;15.82;;;10.32;;
20657;SDS011;10488;50.846;4.078;2022-09-23T17:16:53;15.05;;;10.90;;
20657;SDS011;10488;50.846;4.078;2022-09-23T17:19:22;15.48;;;9.93;;
20657;SDS011;10488;50.846;4.078;2022-09-23T17:21:48;15.35;;;10.13;;
20657;SDS011;10488;50.846;4.078;2022-09-23T17:24:14;15.90;;;10.50;;
20657;SDS011;10488;50.846;4.078;2022-09-23T17:26:41;18.25;;;10.63;;
20657;SDS011;10488;50.846;4.078;2022-09-23T17:29:08;15.63;;;10.98;;
20657;SDS011;10488;50.846;4.078;2022-09-23T17:31:33;14.30;;;10.23;;
20657;SDS011;10488;50.846;4.078;2022-09-23T17:34:00;17.23;;;10.95;;
20657;SDS011;10488;50.846;4.078;2022-09-23T17:36:28;18.55;;;11.27;;
20657;SDS011;10488;50.846;4.078;2022-09-23T17:38:54;14.55;;;11.63;;
20657;SDS011;10488;50.846;4.078;2022-09-23T17:41:21;17.30;;;11.05;;
20657;SDS011;10488;50.846;4.078;2022-09-23T17:43:47;18.10;;;13.07;;
20657;SDS011;10488;50.846;4.078;2022-09-23T17:46:19;16.65;;;13.00;;
20657;SDS011;10488;50.846;4.078;2022-09-23T17:48:45;19.35;;;14.13;;
20657;SDS011;10488;50.846;4.078;2022-09-23T17:51:12;15.93;;;14.07;;
20657;SDS011;10488;50.846;4.078;2022-09-23T17:53:45;19.48;;;14.25;;
20657;SDS011;10488;50.846;4.078;2022-09-23T17:58:39;19.23;;;14.20;;